createdAt,value
2023-03-26T00:02:10.365Z,66.27
2023-03-26T00:05:14.594Z,66.39
2023-03-26T00:08:17.196Z,66.92
2023-03-26T00:11:22.028Z,66.81
2023-03-26T00:14:24.252Z,66.85
2023-03-26T00:17:26.789Z,67.28
2023-03-26T00:20:32.731Z,67.08
2023-03-26T00:23:35.690Z,68.23
2023-03-26T00:26:38.391Z,68.59
2023-03-26T00:29:40.836Z,68.46
2023-03-26T00:32:44.516Z,67.83
2023-03-26T00:35:58.920Z,68.75
2023-03-26T00:39:05.113Z,67.73
2023-03-26T00:42:08.247Z,67.89
2023-03-26T00:45:11.222Z,67.94
2023-03-26T00:48:14.959Z,67.38
2023-03-26T00:51:18.944Z,68.16
2023-03-26T00:54:21.346Z,68.03
2023-03-26T00:57:34.998Z,68.17
2023-03-26T01:01:09.931Z,67.93
2023-03-26T01:04:28.136Z,67.55
2023-03-26T01:07:31.333Z,67.92
2023-03-26T01:10:38.673Z,67.23
2023-03-26T01:13:47.016Z,67.67
2023-03-26T01:16:58.904Z,67.40
2023-03-26T01:20:19.261Z,67.51
2023-03-26T01:23:24.479Z,66.31
2023-03-26T01:26:48.838Z,66.60
2023-03-26T01:30:11.246Z,66.29
2023-03-26T01:33:46.762Z,66.87
2023-03-26T01:37:13.168Z,65.72
2023-03-26T01:40:26.450Z,65.51
2023-03-26T01:43:32.226Z,65.50
2023-03-26T01:46:38.129Z,65.12
2023-03-26T01:49:41.634Z,65.26
2023-03-26T01:52:44.177Z,64.70
2023-03-26T01:56:15.350Z,64.69
2023-03-26T01:59:23.088Z,65.26
2023-03-26T02:02:38.861Z,65.54
2023-03-26T02:05:52.719Z,65.94
2023-03-26T02:09:03.641Z,66.32
2023-03-26T02:12:08.190Z,65.77
2023-03-26T02:15:12.063Z,66.01
2023-03-26T02:18:14.192Z,66.72
2023-03-26T02:21:22.654Z,67.22
2023-03-26T02:24:25.940Z,67.07
2023-03-26T02:27:28.931Z,67.12
2023-03-26T02:30:33.639Z,66.87
2023-03-26T02:33:37.109Z,67.65
2023-03-26T02:36:42.858Z,67.01
2023-03-26T02:39:45.915Z,67.23
2023-03-26T02:42:49.638Z,67.13
2023-03-26T02:45:52.718Z,67.46
2023-03-26T02:48:59.398Z,68.44
2023-03-26T02:52:06.288Z,68.75
2023-03-26T02:55:08.962Z,68.54
2023-03-26T02:58:12.272Z,69.00
2023-03-26T03:01:18.319Z,69.16
2023-03-26T03:04:21.846Z,69.26
2023-03-26T03:07:25.173Z,70.17
2023-03-26T03:10:28.512Z,69.96
2023-03-26T03:13:31.950Z,69.56
2023-03-26T03:16:34.464Z,70.48
2023-03-26T03:19:38.630Z,70.57
2023-03-26T03:22:41.695Z,70.67
2023-03-26T03:25:44.082Z,70.80
2023-03-26T03:28:46.739Z,70.64
2023-03-26T03:31:49.371Z,70.64
2023-03-26T03:34:52.332Z,70.23
2023-03-26T03:37:54.524Z,70.24
2023-03-26T03:40:57.300Z,70.75
2023-03-26T03:44:01.579Z,70.91
2023-03-26T03:47:04.265Z,70.85
2023-03-26T03:50:07.135Z,70.72
2023-03-26T03:53:10.376Z,70.57
2023-03-26T03:56:14.563Z,70.75
2023-03-26T03:59:19.680Z,70.51
2023-03-26T04:02:34.519Z,71.03
2023-03-26T04:05:37.475Z,70.70
2023-03-26T04:08:39.610Z,70.83
2023-03-26T04:11:42.362Z,71.14
2023-03-26T04:14:44.671Z,71.69
2023-03-26T04:17:47.358Z,71.25
2023-03-26T04:20:50.721Z,70.75
2023-03-26T04:23:54.657Z,70.26
2023-03-26T04:26:58.297Z,70.14
2023-03-26T04:30:01.713Z,70.26
2023-03-26T04:33:06.317Z,70.00
2023-03-26T04:36:10.221Z,70.01
2023-03-26T04:39:13.391Z,69.37
2023-03-26T04:42:19.963Z,69.73
2023-03-26T04:45:23.188Z,70.47
2023-03-26T04:48:28.024Z,70.65
2023-03-26T04:51:38.342Z,70.55
2023-03-26T04:54:45.412Z,69.86
2023-03-26T04:57:52.929Z,70.02
2023-03-26T05:00:57.274Z,70.35
2023-03-26T05:03:59.868Z,70.86
2023-03-26T05:07:03.375Z,71.53
2023-03-26T05:10:06.703Z,71.02
2023-03-26T05:13:09.561Z,71.06
2023-03-26T05:16:12.055Z,72.09
2023-03-26T05:19:15.017Z,71.41
2023-03-26T05:22:17.392Z,71.24
2023-03-26T05:25:23.284Z,71.12
2023-03-26T05:28:26.645Z,72.17
2023-03-26T05:31:32.364Z,72.80
2023-03-26T05:34:34.642Z,72.73
2023-03-26T05:37:38.868Z,73.09
2023-03-26T05:40:41.115Z,72.06
2023-03-26T05:43:44.893Z,72.19
2023-03-26T05:46:47.312Z,73.07
2023-03-26T05:49:53.304Z,72.60
2023-03-26T05:52:55.688Z,73.02
2023-03-26T05:55:59.171Z,72.37
2023-03-26T05:59:06.719Z,72.32
2023-03-26T06:02:12.454Z,72.14
2023-03-26T06:05:15.797Z,71.60
2023-03-26T06:08:20.579Z,73.18
2023-03-26T06:11:23.253Z,72.60
2023-03-26T06:14:25.453Z,73.02
2023-03-26T06:17:29.903Z,72.32
2023-03-26T06:20:35.587Z,72.21
2023-03-26T06:23:38.459Z,73.44
2023-03-26T06:26:40.708Z,72.55
2023-03-26T06:29:44.495Z,72.16
2023-03-26T06:32:47.001Z,72.58
2023-03-26T06:35:50.281Z,71.39
2023-03-26T06:38:52.744Z,70.58
2023-03-26T06:41:55.435Z,69.55
2023-03-26T06:44:57.823Z,69.04
2023-03-26T06:48:02.790Z,68.89
2023-03-26T06:51:06.102Z,67.92
2023-03-26T06:54:11.124Z,67.46
2023-03-26T06:57:13.864Z,66.36
2023-03-26T07:00:17.842Z,65.25
2023-03-26T07:03:23.363Z,64.67
2023-03-26T07:06:38.423Z,62.84
2023-03-26T07:10:04.898Z,62.75
2023-03-26T07:13:10.427Z,62.72
2023-03-26T07:16:14.285Z,62.64
2023-03-26T07:19:17.772Z,61.72
2023-03-26T07:22:22.537Z,61.40
2023-03-26T07:25:29.078Z,60.71
2023-03-26T07:29:04.738Z,62.62
2023-03-26T07:32:18.900Z,63.31
2023-03-26T07:35:41.704Z,63.29
2023-03-26T07:38:53.605Z,63.34
2023-03-26T07:42:21.149Z,64.96
2023-03-26T07:45:39.459Z,64.56
2023-03-26T07:48:44.537Z,63.32
2023-03-26T07:51:48.369Z,61.75
2023-03-26T07:54:51.382Z,60.40
2023-03-26T07:58:23.989Z,58.80
2023-03-26T08:01:35.688Z,59.23
2023-03-26T08:04:50.505Z,61.20
2023-03-26T08:08:11.469Z,59.81
2023-03-26T08:11:41.944Z,60.49
2023-03-26T08:15:05.225Z,61.13
2023-03-26T08:18:49.159Z,60.12
2023-03-26T08:21:58.464Z,59.79
2023-03-26T08:25:25.527Z,59.07
2023-03-26T08:28:44.591Z,58.06
2023-03-26T08:31:49.228Z,58.03
2023-03-26T08:34:52.716Z,58.24
2023-03-26T08:37:55.313Z,58.36
2023-03-26T08:41:15.037Z,58.33
2023-03-26T08:44:55.770Z,56.52
2023-03-26T08:48:19.553Z,57.50
2023-03-26T08:51:49.452Z,56.12
2023-03-26T08:55:12.618Z,56.44
2023-03-26T08:58:24.715Z,53.46
2023-03-26T09:01:54.117Z,49.29
2023-03-26T09:05:21.440Z,48.29
2023-03-26T09:08:57.348Z,48.76
2023-03-26T09:12:37.565Z,46.56
2023-03-26T09:16:07.846Z,46.37
2023-03-26T09:19:35.576Z,47.12
2023-03-26T09:22:58.910Z,45.64
2023-03-26T09:26:32.660Z,43.96
2023-03-26T09:29:59.640Z,43.18
2023-03-26T09:33:17.070Z,41.68
2023-03-26T09:36:29.618Z,42.27
2023-03-26T09:40:05.082Z,42.46
2023-03-26T09:43:40.243Z,42.52
2023-03-26T09:47:34.829Z,42.47
2023-03-26T09:51:06.625Z,40.74
2023-03-26T09:54:33.969Z,40.84
2023-03-26T09:58:25.682Z,39.71
2023-03-26T10:01:54.254Z,40.45
2023-03-26T10:05:04.880Z,40.35
2023-03-26T10:08:30.883Z,41.01
2023-03-26T10:11:52.610Z,42.15
2023-03-26T10:15:04.328Z,44.35
2023-03-26T10:18:32.528Z,44.59
2023-03-26T10:22:13.625Z,45.42
2023-03-26T10:25:29.216Z,49.53
2023-03-26T10:28:53.057Z,64.09
2023-03-26T10:32:07.073Z,66.95
2023-03-26T10:35:31.448Z,76.22
2023-03-26T10:39:02.039Z,74.49
2023-03-26T10:42:13.307Z,78.86
2023-03-26T10:45:28.769Z,80.67
2023-03-26T10:48:45.286Z,79.42
2023-03-26T10:51:55.830Z,82.29
2023-03-26T10:55:09.600Z,80.89
2023-03-26T10:58:48.553Z,80.51
2023-03-26T11:02:30.435Z,77.77
2023-03-26T11:05:48.020Z,78.38
2023-03-26T11:09:03.650Z,77.29
2023-03-26T11:12:26.570Z,80.97
2023-03-26T11:15:40.469Z,81.15
2023-03-26T11:19:01.625Z,79.64
2023-03-26T11:22:16.984Z,80.31
2023-03-26T11:25:31.304Z,84.36
2023-03-26T11:29:03.645Z,84.92
2023-03-26T11:32:21.115Z,83.77
2023-03-26T11:35:40.383Z,83.32
2023-03-26T11:38:47.869Z,83.85
2023-03-26T11:41:56.067Z,81.74
2023-03-26T11:45:20.836Z,81.49
2023-03-26T11:48:28.711Z,74.64
2023-03-26T11:51:36.677Z,75.23
2023-03-26T11:54:38.905Z,70.30
2023-03-26T11:57:50.077Z,69.14
2023-03-26T12:00:54.085Z,66.86
2023-03-26T12:03:58.876Z,67.94
2023-03-26T12:07:21.133Z,69.21
2023-03-26T12:10:31.489Z,63.76
2023-03-26T12:13:43.537Z,66.57
2023-03-26T12:17:01.182Z,63.81
2023-03-26T12:20:26.240Z,63.20
2023-03-26T12:23:57.827Z,64.67
2023-03-26T12:27:28.482Z,61.34
2023-03-26T12:30:31.175Z,55.74
2023-03-26T12:33:35.068Z,57.99
2023-03-26T12:36:39.038Z,55.58
2023-03-26T12:40:08.931Z,55.93
2023-03-26T12:44:56.641Z,54.52
2023-03-26T12:47:57.560Z,52.47
2023-03-26T12:51:13.678Z,44.77
2023-03-26T12:54:33.189Z,45.38
2023-03-26T12:57:43.752Z,45.82
2023-03-26T13:00:58.803Z,43.06
2023-03-26T13:04:04.198Z,42.79
2023-03-26T13:07:32.682Z,41.33
2023-03-26T13:11:26.100Z,41.94
2023-03-26T13:14:43.805Z,42.59
2023-03-26T13:18:06.202Z,44.22
2023-03-26T13:21:16.565Z,41.96
2023-03-26T13:24:37.519Z,41.25
2023-03-26T13:28:03.957Z,41.29
2023-03-26T13:31:16.746Z,43.64
2023-03-26T13:34:36.728Z,42.42
2023-03-26T13:38:30.256Z,39.95
2023-03-26T13:42:10.550Z,38.12
2023-03-26T13:45:36.516Z,40.31
2023-03-26T13:48:49.800Z,40.95
2023-03-26T13:52:09.259Z,41.75
2023-03-26T13:55:30.667Z,42.92
2023-03-26T13:58:42.021Z,41.31
2023-03-26T14:01:51.394Z,39.27
2023-03-26T14:04:58.625Z,39.85
2023-03-26T14:08:14.612Z,40.55
2023-03-26T14:11:27.865Z,37.99
2023-03-26T14:14:55.645Z,39.44
2023-03-26T14:18:32.188Z,37.76
2023-03-26T14:21:58.965Z,37.27
2023-03-26T14:25:19.914Z,37.11
2023-03-26T14:28:38.429Z,35.88
2023-03-26T14:31:59.585Z,37.13
2023-03-26T14:35:10.635Z,36.28
2023-03-26T14:38:56.686Z,36.75
2023-03-26T14:42:19.362Z,33.88
2023-03-26T14:45:48.444Z,32.65
2023-03-26T14:49:22.100Z,31.39
2023-03-26T14:52:31.025Z,31.32
2023-03-26T14:55:42.232Z,32.70
2023-03-26T14:59:18.868Z,32.43
2023-03-26T15:03:07.901Z,32.84
2023-03-26T15:06:25.498Z,33.59
2023-03-26T15:09:40.297Z,32.69
2023-03-26T15:13:11.052Z,33.77
2023-03-26T15:16:50.732Z,33.40
2023-03-26T15:19:53.170Z,34.23
2023-03-26T15:23:32.403Z,35.15
2023-03-26T15:27:29.084Z,34.83
2023-03-26T15:30:49.793Z,35.24
2023-03-26T15:34:43.657Z,35.59
2023-03-26T15:38:09.063Z,34.53
2023-03-26T15:41:25.439Z,35.27
2023-03-26T15:44:54.688Z,34.18
2023-03-26T15:48:12.587Z,35.16
2023-03-26T15:51:46.196Z,35.67
2023-03-26T15:54:55.954Z,36.06
2023-03-26T15:58:26.096Z,35.85
2023-03-26T16:01:50.422Z,36.67
2023-03-26T16:04:55.818Z,36.93
2023-03-26T16:08:29.047Z,36.74
2023-03-26T16:11:55.003Z,37.14
2023-03-26T16:15:07.269Z,37.02
2023-03-26T16:18:15.660Z,37.83
2023-03-26T16:21:36.395Z,38.07
2023-03-26T16:24:49.362Z,38.61
2023-03-26T16:28:09.989Z,39.08
2023-03-26T16:31:36.387Z,39.29
2023-03-26T16:34:45.392Z,38.73
2023-03-26T16:37:52.099Z,39.23
2023-03-26T16:41:15.808Z,41.37
2023-03-26T16:44:46.607Z,42.58
2023-03-26T16:48:17.499Z,41.40
2023-03-26T16:51:27.360Z,40.48
2023-03-26T16:54:54.120Z,40.77
2023-03-26T16:58:21.922Z,40.84
2023-03-26T17:01:33.130Z,40.71
2023-03-26T17:04:36.905Z,41.38
2023-03-26T17:07:47.058Z,42.20
2023-03-26T17:11:07.106Z,41.65
2023-03-26T17:14:28.266Z,42.71
2023-03-26T17:17:55.535Z,44.09
2023-03-26T17:21:00.968Z,44.90
2023-03-26T17:24:15.524Z,44.81
2023-03-26T17:27:54.487Z,44.58
2023-03-26T17:31:10.873Z,45.18
2023-03-26T17:34:37.885Z,45.62
2023-03-26T17:37:47.082Z,45.81
2023-03-26T17:40:51.628Z,45.90
2023-03-26T17:43:56.929Z,47.97
2023-03-26T17:47:01.411Z,48.68
2023-03-26T17:50:30.621Z,47.84
2023-03-26T17:53:36.588Z,47.54
2023-03-26T17:56:40.904Z,47.13
2023-03-26T17:59:45.050Z,48.64
2023-03-26T18:02:55.275Z,48.88
2023-03-26T18:06:13.967Z,48.81
2023-03-26T18:09:48.130Z,50.25
2023-03-26T18:13:02.849Z,48.09
2023-03-26T18:16:12.206Z,51.25
2023-03-26T18:19:21.961Z,50.23
2023-03-26T18:22:28.353Z,50.58
2023-03-26T18:25:33.974Z,51.81
2023-03-26T18:28:42.182Z,49.78
2023-03-26T18:31:46.516Z,47.64
2023-03-26T18:34:54.239Z,47.79
2023-03-26T18:38:00.921Z,47.35
2023-03-26T18:41:05.903Z,48.01
2023-03-26T18:44:15.588Z,48.15
2023-03-26T18:47:18.677Z,50.39
2023-03-26T18:50:27.275Z,51.55
2023-03-26T18:53:35.656Z,53.03
2023-03-26T18:56:43.386Z,52.41
2023-03-26T18:59:46.195Z,53.34
2023-03-26T19:02:54.274Z,51.21
2023-03-26T19:05:58.224Z,51.04
2023-03-26T19:09:01.297Z,53.03
2023-03-26T19:12:14.332Z,51.04
2023-03-26T19:15:18.166Z,51.47
2023-03-26T19:18:25.413Z,51.57
2023-03-26T19:21:28.203Z,51.86
2023-03-26T19:24:31.172Z,51.46
2023-03-26T19:27:34.077Z,52.17
2023-03-26T19:30:40.690Z,55.58
2023-03-26T19:33:44.320Z,57.05
2023-03-26T19:37:00.928Z,56.49
2023-03-26T19:40:18.848Z,54.54
2023-03-26T19:43:21.363Z,59.08
2023-03-26T19:46:25.612Z,57.40
2023-03-26T19:49:33.407Z,57.18
2023-03-26T19:52:39.349Z,57.51
2023-03-26T19:55:42.231Z,59.04
2023-03-26T19:58:44.930Z,60.75
2023-03-26T20:01:47.150Z,59.50
2023-03-26T20:04:50.020Z,62.35
2023-03-26T20:07:56.065Z,62.42
2023-03-26T20:10:59.201Z,61.38
2023-03-26T20:14:02.473Z,59.23
2023-03-26T20:17:12.304Z,60.29
2023-03-26T20:20:15.713Z,59.84
2023-03-26T20:23:18.873Z,61.70
2023-03-26T20:26:23.069Z,60.49
2023-03-26T20:29:25.522Z,61.33
2023-03-26T20:32:27.694Z,63.02
2023-03-26T20:35:36.231Z,63.29
2023-03-26T20:38:40.148Z,59.87
2023-03-26T20:41:48.242Z,61.63
2023-03-26T20:44:50.405Z,62.37
2023-03-26T20:47:55.785Z,62.15
2023-03-26T20:50:57.938Z,60.70
2023-03-26T20:54:00.616Z,57.79
2023-03-26T20:57:02.956Z,59.79
2023-03-26T21:00:16.088Z,60.42
2023-03-26T21:03:18.850Z,56.33
2023-03-26T21:06:21.275Z,55.96
2023-03-26T21:09:25.049Z,55.88
2023-03-26T21:12:31.704Z,56.33
2023-03-26T21:15:34.898Z,56.47
2023-03-26T21:18:37.801Z,56.02
2023-03-26T21:22:05.026Z,56.34
2023-03-26T21:25:17.336Z,55.75
2023-03-26T21:28:32.211Z,57.04
2023-03-26T21:31:42.425Z,56.78
2023-03-26T21:34:55.758Z,56.57
2023-03-26T21:38:03.139Z,58.15
2023-03-26T21:41:05.644Z,59.59
2023-03-26T21:44:08.642Z,60.18
2023-03-26T21:47:11.231Z,61.29
2023-03-26T21:50:17.624Z,63.29
2023-03-26T21:53:20.043Z,64.35
2023-03-26T21:56:50.064Z,67.63
2023-03-26T22:00:19.332Z,71.88
2023-03-26T22:03:33.000Z,74.31
2023-03-26T22:06:42.883Z,75.13
2023-03-26T22:09:45.850Z,73.88
2023-03-26T22:12:48.223Z,74.21
2023-03-26T22:15:50.942Z,77.08
2023-03-26T22:18:53.782Z,79.44
2023-03-26T22:21:56.272Z,82.79
2023-03-26T22:24:58.377Z,82.13
2023-03-26T22:28:00.809Z,85.00
2023-03-26T22:31:08.524Z,87.05
2023-03-26T22:34:11.687Z,87.82
2023-03-26T22:37:14.158Z,88.90
2023-03-26T22:40:17.801Z,90.31
2023-03-26T22:43:19.930Z,89.46
2023-03-26T22:46:22.806Z,92.39
2023-03-26T22:49:30.115Z,93.17
2023-03-26T22:52:34.509Z,92.87
2023-03-26T22:55:37.416Z,93.82
2023-03-26T22:58:40.255Z,94.41
2023-03-26T23:01:44.203Z,95.57
2023-03-26T23:04:48.501Z,95.36
2023-03-26T23:07:51.898Z,97.10
2023-03-26T23:10:54.554Z,99.83
2023-03-26T23:13:56.961Z,100.00
2023-03-26T23:16:59.711Z,100.00
2023-03-26T23:20:06.070Z,100.00
2023-03-26T23:23:08.768Z,100.00
2023-03-26T23:26:11.218Z,100.00
2023-03-26T23:29:13.846Z,100.00
2023-03-26T23:32:24.503Z,100.00
2023-03-26T23:35:27.591Z,100.00
2023-03-26T23:38:44.092Z,100.00
2023-03-26T23:41:47.032Z,100.00
2023-03-26T23:44:49.288Z,100.00
2023-03-26T23:47:52.132Z,100.00
2023-03-26T23:51:03.824Z,100.00
2023-03-26T23:54:08.562Z,100.00
2023-03-26T23:57:10.759Z,100.00
